Terminal Aerodrome Forecast
Issued by NWS

Home | Current Version | Previous Version | Text Only | Print | Product List | Glossary On
Versions: 1 2 3 4 5 6 7 8 9 10 11 12 13 14 15
696
FTUS41 KPBZ 270533
TAFBVI
TAF
KBVI 270533Z 2706/2806 14007KT P6SM SCT250 WS020/20035KT
     FM271200 16009KT P6SM SCT250
     FM271700 18012G22KT P6SM BKN140
     FM272000 19010G20KT 6SM -SHRA VCTS BKN060CB
     FM280000 22007KT P6SM BKN025
      AMD NOT SKED=

USA.gov is the U.S. government's official web portal to all federal, state and local government web resources and services.